Time;durP1;ratioP1;P1;durP2;ratioP2;P2;SDS_P1;SDS_P2;PMS_P1;PMS_P2;Temp;Humidity;BMP_temperature;BMP_pressure;BME280_temperature;BME280_humidity;BME280_pressure;Samples;Min_cycle;Max_cycle;Signal;HPM_P1;HPM_P2
2021/01/28 00:00:53;;;;;;;7.10;4.60;;;5.60;99.90;;;;;;5061376;28;20202;-81
2021/01/28 00:03:19;;;;;;;6.65;4.30;;;5.80;99.90;;;;;;5063421;28;20206;-80
2021/01/28 00:05:46;;;;;;;6.47;4.60;;;5.40;99.90;;;;;;5063101;28;20696;-80
2021/01/28 00:08:14;;;;;;;9.68;5.07;;;5.50;99.90;;;;;;5066445;28;20241;-79
2021/01/28 00:10:42;;;;;;;11.55;5.10;;;5.30;99.90;;;;;;5061778;28;20211;-80
2021/01/28 00:13:09;;;;;;;6.82;4.63;;;5.50;99.90;;;;;;5064674;28;20223;-80
2021/01/28 00:15:36;;;;;;;8.65;5.68;;;5.50;99.90;;;;;;5065559;28;20211;-79
2021/01/28 00:18:05;;;;;;;9.82;5.47;;;5.60;99.90;;;;;;5061829;28;20242;-79
2021/01/28 00:20:35;;;;;;;7.97;4.97;;;5.50;99.90;;;;;;5067077;28;20213;-78
2021/01/28 00:23:02;;;;;;;7.10;5.15;;;5.20;99.90;;;;;;5067450;28;20241;-78
2021/01/28 00:25:29;;;;;;;7.75;5.43;;;5.40;99.90;;;;;;5053865;28;20207;-79
2021/01/28 00:27:56;;;;;;;9.05;4.85;;;5.60;99.90;;;;;;5061722;28;20282;-80
2021/01/28 00:30:26;;;;;;;8.40;4.78;;;5.60;99.90;;;;;;5066066;28;20210;-80
2021/01/28 00:32:53;;;;;;;9.35;5.68;;;5.40;99.90;;;;;;5067278;28;20241;-80
2021/01/28 00:35:25;;;;;;;9.18;5.50;;;5.30;99.90;;;;;;5064777;28;20206;-79
2021/01/28 00:37:52;;;;;;;8.38;5.20;;;5.10;99.90;;;;;;5066014;28;20372;-80
2021/01/28 00:40:19;;;;;;;8.18;5.60;;;5.30;99.90;;;;;;5066526;28;20253;-81
2021/01/28 00:42:48;;;;;;;7.50;4.80;;;5.20;99.90;;;;;;5061635;28;20376;-80
2021/01/28 00:45:16;;;;;;;6.53;4.72;;;5.20;99.90;;;;;;5055240;28;20554;-80
2021/01/28 00:47:42;;;;;;;10.65;5.15;;;5.10;99.90;;;;;;5054343;28;20303;-79
2021/01/28 00:50:10;;;;;;;7.05;4.50;;;5.50;99.90;;;;;;5052313;28;20219;-79
2021/01/28 00:52:39;;;;;;;8.82;4.78;;;5.10;99.90;;;;;;5053101;28;20210;-79
2021/01/28 00:55:09;;;;;;;6.60;4.75;;;5.40;99.90;;;;;;5052459;28;20232;-81
2021/01/28 00:57:36;;;;;;;7.80;4.97;;;5.30;99.90;;;;;;5052381;28;20254;-78
2021/01/28 01:00:10;;;;;;;6.78;4.45;;;5.30;99.90;;;;;;5051424;28;20278;-79
2021/01/28 01:02:37;;;;;;;7.47;4.72;;;5.40;99.90;;;;;;5058477;28;20229;-78
2021/01/28 01:05:04;;;;;;;7.43;4.35;;;5.30;99.90;;;;;;5053676;28;20207;-80
2021/01/28 01:07:30;;;;;;;6.78;4.65;;;5.30;99.90;;;;;;5052087;28;20218;-80
2021/01/28 01:09:57;;;;;;;7.57;4.20;;;5.20;99.90;;;;;;5051609;28;20203;-79
2021/01/28 01:12:23;;;;;;;7.13;4.30;;;5.30;99.90;;;;;;5052293;28;20352;-79
2021/01/28 01:14:50;;;;;;;6.00;3.90;;;5.40;99.90;;;;;;5052578;28;20684;-78
2021/01/28 01:17:17;;;;;;;6.80;4.25;;;5.20;99.90;;;;;;5052364;28;20851;-80
2021/01/28 01:19:44;;;;;;;7.32;4.70;;;5.20;99.90;;;;;;5052626;28;20301;-79
2021/01/28 01:22:10;;;;;;;6.75;4.40;;;5.40;99.90;;;;;;5051654;28;20207;-79
2021/01/28 01:24:37;;;;;;;7.90;4.95;;;5.30;99.90;;;;;;5051579;28;20684;-80
2021/01/28 01:27:04;;;;;;;7.13;4.82;;;5.30;99.90;;;;;;5051718;28;20227;-79
2021/01/28 01:29:31;;;;;;;6.90;4.38;;;5.30;99.90;;;;;;5051096;28;20240;-79
2021/01/28 01:31:57;;;;;;;7.72;4.80;;;5.30;99.90;;;;;;5051550;28;20214;-78
2021/01/28 01:34:25;;;;;;;6.35;4.03;;;5.30;99.90;;;;;;5051990;28;20218;-78
2021/01/28 01:36:51;;;;;;;10.45;5.15;;;5.20;99.90;;;;;;5050305;28;20230;-78
2021/01/28 01:39:18;;;;;;;8.07;5.18;;;5.30;99.90;;;;;;5049942;28;20202;-79
2021/01/28 01:41:45;;;;;;;7.25;4.38;;;5.30;99.90;;;;;;5051900;28;20210;-77
2021/01/28 01:44:11;;;;;;;6.95;5.18;;;5.30;99.90;;;;;;5051905;28;20205;-78
2021/01/28 01:46:38;;;;;;;8.70;4.75;;;5.40;99.90;;;;;;5049090;28;20827;-77
2021/01/28 01:49:08;;;;;;;7.82;5.00;;;5.50;99.90;;;;;;5051406;28;20215;-80
2021/01/28 01:51:39;;;;;;;8.52;4.30;;;5.50;99.90;;;;;;5051772;28;20202;-80
2021/01/28 01:54:11;;;;;;;6.93;4.28;;;5.20;99.90;;;;;;5050436;28;20616;-78
2021/01/28 01:56:41;;;;;;;7.47;4.57;;;5.30;99.90;;;;;;5050790;28;20236;-78
2021/01/28 01:59:11;;;;;;;6.60;4.60;;;5.30;99.90;;;;;;5030329;28;20717;-78
2021/01/28 02:01:40;;;;;;;9.35;4.15;;;5.40;99.90;;;;;;5030531;28;20282;-79
2021/01/28 02:04:08;;;;;;;8.48;5.15;;;5.30;99.90;;;;;;5043232;28;20213;-78
2021/01/28 02:06:40;;;;;;;5.80;3.90;;;5.40;99.90;;;;;;5052250;28;20226;-80
2021/01/28 02:09:09;;;;;;;6.00;4.15;;;5.30;99.90;;;;;;5051050;28;20225;-80
2021/01/28 02:11:37;;;;;;;5.82;3.80;;;5.60;99.90;;;;;;5052464;28;20210;-80
2021/01/28 02:14:04;;;;;;;6.93;4.07;;;5.40;99.90;;;;;;5052410;28;20214;-79
2021/01/28 02:16:33;;;;;;;6.45;4.13;;;5.50;99.90;;;;;;5059329;28;20230;-79
2021/01/28 02:19:01;;;;;;;6.85;4.90;;;5.30;99.90;;;;;;5052191;28;20210;-79
2021/01/28 02:21:32;;;;;;;7.65;4.15;;;5.30;99.90;;;;;;5053044;28;20266;-80
2021/01/28 02:24:30;;;;;;;7.03;4.35;;;5.30;99.90;;;;;;5053334;28;20199;-80
2021/01/28 02:26:58;;;;;;;7.07;3.83;;;5.30;99.90;;;;;;5053784;28;20234;-79
2021/01/28 02:29:25;;;;;;;7.28;4.65;;;5.40;99.90;;;;;;5061504;28;20206;-79
2021/01/28 02:31:55;;;;;;;6.72;3.63;;;5.40;99.90;;;;;;5056819;28;20317;-80
2021/01/28 02:34:22;;;;;;;6.97;4.30;;;5.30;99.90;;;;;;5059489;28;20217;-79
2021/01/28 02:36:52;;;;;;;6.63;4.13;;;5.70;99.90;;;;;;5051726;28;20230;-80
2021/01/28 02:39:22;;;;;;;9.20;4.28;;;5.40;99.90;;;;;;5051278;28;20203;-79
2021/01/28 02:41:57;;;;;;;5.22;3.15;;;5.40;99.90;;;;;;5050037;28;20207;-80
2021/01/28 02:44:25;;;;;;;5.05;3.30;;;5.60;99.90;;;;;;5036866;28;20241;-80
2021/01/28 02:46:52;;;;;;;5.70;3.70;;;5.40;99.90;;;;;;5031012;28;20223;-79
2021/01/28 02:49:19;;;;;;;6.20;3.30;;;5.70;99.90;;;;;;5031176;28;20230;-79
2021/01/28 02:51:45;;;;;;;7.85;4.20;;;5.70;99.90;;;;;;5034115;28;20207;-79
2021/01/28 02:54:12;;;;;;;5.70;3.50;;;5.70;99.90;;;;;;5031775;28;20234;-80
2021/01/28 02:56:39;;;;;;;5.80;3.50;;;5.50;99.90;;;;;;5042879;28;20234;-80
2021/01/28 02:59:08;;;;;;;5.68;3.40;;;5.60;99.90;;;;;;5036812;28;20210;-79
2021/01/28 03:01:38;;;;;;;6.32;3.40;;;5.40;99.90;;;;;;5050663;28;20234;-80
2021/01/28 03:04:05;;;;;;;5.70;2.83;;;5.60;99.90;;;;;;5050495;28;20215;-79
2021/01/28 03:06:32;;;;;;;5.45;3.45;;;5.80;99.90;;;;;;5045401;28;20222;-80
2021/01/28 03:08:59;;;;;;;5.15;3.10;;;5.70;99.90;;;;;;5030007;28;20204;-79
2021/01/28 03:11:26;;;;;;;4.72;2.70;;;5.70;99.90;;;;;;5046007;28;20731;-80
2021/01/28 03:13:52;;;;;;;4.85;2.60;;;5.70;99.90;;;;;;5050396;28;20225;-80
2021/01/28 03:16:19;;;;;;;5.00;3.00;;;5.80;99.90;;;;;;5059302;28;20260;-78
2021/01/28 03:18:47;;;;;;;4.10;2.38;;;5.90;99.90;;;;;;5060201;28;20214;-79
2021/01/28 03:21:14;;;;;;;4.63;2.47;;;5.90;99.90;;;;;;5049667;28;20202;-77
2021/01/28 03:23:40;;;;;;;5.40;3.28;;;5.90;99.90;;;;;;5037394;28;20208;-77
2021/01/28 03:26:08;;;;;;;4.35;2.35;;;5.70;99.90;;;;;;5049911;28;20218;-78
2021/01/28 03:28:34;;;;;;;5.55;2.50;;;5.80;99.90;;;;;;5036741;28;20670;-79
2021/01/28 03:31:01;;;;;;;4.90;2.50;;;5.80;99.90;;;;;;5050484;28;20268;-79
2021/01/28 03:33:28;;;;;;;4.35;2.40;;;5.90;99.90;;;;;;5046643;28;20203;-77
2021/01/28 03:35:55;;;;;;;5.68;3.00;;;5.80;99.90;;;;;;5032358;28;20207;-77
2021/01/28 03:38:22;;;;;;;4.57;2.72;;;5.90;99.90;;;;;;5041496;28;20202;-77
2021/01/28 03:40:49;;;;;;;4.82;2.63;;;6.00;99.90;;;;;;5041571;28;20214;-78
2021/01/28 03:43:15;;;;;;;4.50;3.10;;;6.00;99.90;;;;;;5035030;28;20677;-79
2021/01/28 03:45:42;;;;;;;4.35;2.35;;;5.80;99.90;;;;;;5037041;28;20613;-77
2021/01/28 03:48:09;;;;;;;5.00;2.80;;;5.90;99.90;;;;;;5046742;28;20650;-77
2021/01/28 03:50:36;;;;;;;5.82;2.80;;;5.80;99.90;;;;;;5052508;28;20207;-80
2021/01/28 03:53:05;;;;;;;5.70;2.97;;;6.00;99.90;;;;;;5033090;28;20661;-78
2021/01/28 03:55:31;;;;;;;3.92;2.33;;;6.00;99.90;;;;;;5039794;28;20684;-78
2021/01/28 03:57:58;;;;;;;4.18;2.30;;;6.00;99.90;;;;;;5041137;28;20276;-78
2021/01/28 04:00:28;;;;;;;4.95;2.63;;;5.80;99.90;;;;;;5035802;28;20668;-78
2021/01/28 04:02:55;;;;;;;7.00;2.20;;;6.00;99.90;;;;;;5047643;28;20209;-78
2021/01/28 04:05:22;;;;;;;6.13;2.28;;;6.20;99.90;;;;;;5031577;28;20211;-77
2021/01/28 04:07:49;;;;;;;3.60;2.08;;;6.10;99.90;;;;;;5043345;28;20592;-77
2021/01/28 04:10:19;;;;;;;4.63;2.80;;;6.10;99.90;;;;;;5049270;28;20202;-77
2021/01/28 04:12:45;;;;;;;3.97;2.38;;;6.20;99.90;;;;;;5051481;28;20703;-80
2021/01/28 04:15:13;;;;;;;7.65;2.97;;;6.30;99.90;;;;;;5039732;28;20577;-77
2021/01/28 04:17:40;;;;;;;4.40;2.70;;;6.30;99.90;;;;;;5037543;28;20257;-78
2021/01/28 04:20:08;;;;;;;4.57;2.78;;;6.40;99.90;;;;;;5042874;28;20739;-78
2021/01/28 04:22:35;;;;;;;6.05;2.92;;;6.20;99.90;;;;;;5038065;28;20222;-78
2021/01/28 04:25:02;;;;;;;5.25;3.20;;;6.20;99.90;;;;;;5036227;28;20199;-78
2021/01/28 04:27:29;;;;;;;5.47;3.22;;;6.30;99.90;;;;;;5034381;28;20277;-77
2021/01/28 04:29:56;;;;;;;6.35;3.55;;;6.30;99.90;;;;;;5047151;28;20230;-78
2021/01/28 04:32:22;;;;;;;5.95;4.00;;;6.10;99.90;;;;;;5036995;28;20622;-78
2021/01/28 04:34:49;;;;;;;6.22;4.10;;;6.40;99.90;;;;;;5050247;28;20211;-78
2021/01/28 04:37:16;;;;;;;5.55;3.35;;;6.30;99.90;;;;;;5050139;28;20257;-78
2021/01/28 04:39:43;;;;;;;6.32;3.42;;;6.20;99.90;;;;;;5033383;28;20562;-78
2021/01/28 04:42:14;;;;;;;6.47;4.30;;;6.20;99.90;;;;;;5044623;28;20213;-77
2021/01/28 04:44:42;;;;;;;5.90;3.85;;;6.40;99.90;;;;;;5053521;28;20413;-79
2021/01/28 04:47:15;;;;;;;8.30;5.03;;;6.30;99.90;;;;;;5048631;28;20248;-79
2021/01/28 04:49:47;;;;;;;6.53;4.15;;;6.40;99.90;;;;;;5053164;28;20704;-78
2021/01/28 04:52:15;;;;;;;6.25;4.00;;;6.30;99.90;;;;;;5038752;28;20343;-79
2021/01/28 04:54:44;;;;;;;6.85;4.15;;;6.40;99.90;;;;;;5054021;28;20214;-79
2021/01/28 04:57:13;;;;;;;7.60;4.40;;;6.20;99.90;;;;;;5049951;28;20234;-78
2021/01/28 04:59:43;;;;;;;7.47;4.88;;;6.30;99.90;;;;;;5053146;28;20210;-79
2021/01/28 05:02:16;;;;;;;6.57;4.38;;;6.10;99.90;;;;;;5054252;28;20206;-79
2021/01/28 05:04:46;;;;;;;7.35;4.53;;;6.20;99.90;;;;;;5050896;28;20312;-78
2021/01/28 05:07:23;;;;;;;8.40;4.85;;;6.00;99.90;;;;;;5033259;28;20740;-78
2021/01/28 05:10:09;;;;;;;6.40;4.35;;;6.00;99.90;;;;;;5034091;28;20329;-78
2021/01/28 05:12:36;;;;;;;7.38;4.60;;;6.00;99.90;;;;;;5036921;28;20199;-78
2021/01/28 05:15:15;;;;;;;6.00;3.90;;;6.10;99.90;;;;;;5045200;28;20209;-78
2021/01/28 05:17:44;;;;;;;7.25;4.53;;;6.00;99.90;;;;;;5048162;28;20227;-79
2021/01/28 05:20:15;;;;;;;5.78;3.80;;;6.00;99.90;;;;;;5035080;28;20219;-79
2021/01/28 05:22:45;;;;;;;8.43;5.03;;;6.20;99.90;;;;;;5054083;28;20352;-78
2021/01/28 05:25:17;;;;;;;8.20;5.10;;;6.20;99.90;;;;;;5039503;28;20294;-79
2021/01/28 05:27:44;;;;;;;6.82;4.40;;;6.20;99.90;;;;;;5042266;28;20223;-78
2021/01/28 05:30:16;;;;;;;9.50;6.20;;;6.10;99.90;;;;;;5050292;28;20271;-78
2021/01/28 05:32:45;;;;;;;8.32;4.95;;;6.20;99.90;;;;;;5049378;28;20209;-78
2021/01/28 05:35:16;;;;;;;7.13;4.57;;;6.30;99.90;;;;;;5042663;28;20610;-78
2021/01/28 05:37:44;;;;;;;7.20;4.40;;;6.20;99.90;;;;;;5046951;28;20234;-79
2021/01/28 05:40:14;;;;;;;8.55;4.47;;;6.40;99.90;;;;;;5048008;28;20230;-78
2021/01/28 05:42:42;;;;;;;7.40;4.63;;;6.20;99.90;;;;;;5043826;28;20238;-78
2021/01/28 05:45:28;;;;;;;7.05;4.32;;;6.30;99.90;;;;;;5032161;28;20207;-78
2021/01/28 05:48:11;;;;;;;6.65;4.43;;;6.00;99.90;;;;;;5031620;28;20226;-78
2021/01/28 05:50:38;;;;;;;8.00;4.20;;;6.20;99.90;;;;;;5042889;28;20210;-78
2021/01/28 05:53:10;;;;;;;7.97;4.45;;;5.90;99.90;;;;;;5048150;28;20203;-78
2021/01/28 05:55:36;;;;;;;8.27;4.32;;;6.00;99.90;;;;;;5033125;28;20215;-79
2021/01/28 05:58:06;;;;;;;7.07;4.10;;;6.20;99.90;;;;;;5057507;28;20883;-77
2021/01/28 06:00:40;;;;;;;6.97;4.70;;;6.20;99.90;;;;;;5055449;28;20214;-77
2021/01/28 06:03:46;;;;;;;8.35;4.63;;;6.30;99.90;;;;;;5053403;28;20211;-77
2021/01/28 06:06:42;;;;;;;7.65;4.55;;;6.40;99.90;;;;;;5068260;28;20206;-78
2021/01/28 06:09:27;;;;;;;8.23;4.82;;;6.30;99.90;;;;;;5047145;28;20214;-79
2021/01/28 06:12:32;;;;;;;6.95;4.40;;;6.30;99.90;;;;;;5038668;28;20582;-77
2021/01/28 06:15:46;;;;;;;6.47;3.70;;;6.10;99.90;;;;;;5043490;28;20213;-78
2021/01/28 06:18:45;;;;;;;6.07;4.32;;;6.30;99.90;;;;;;4937046;29;20944;-79
2021/01/28 06:21:48;;;;;;;6.40;3.70;;;6.40;99.90;;;;;;4938332;29;20352;-78
2021/01/28 06:24:40;;;;;;;6.35;3.42;;;6.40;99.90;;;;;;5036581;28;20551;-79
2021/01/28 06:27:24;;;;;;;6.50;4.18;;;6.10;99.90;;;;;;5044590;28;20219;-80
2021/01/28 06:30:05;;;;;;;11.70;6.55;;;6.20;99.90;;;;;;5056710;28;20206;-79
2021/01/28 06:33:13;;;;;;;9.63;5.32;;;6.20;99.90;;;;;;5048202;28;20208;-78
2021/01/28 06:36:07;;;;;;;7.93;4.53;;;6.10;99.90;;;;;;5042093;28;20218;-78
2021/01/28 06:38:55;;;;;;;9.18;5.20;;;6.10;99.90;;;;;;5055102;28;20716;-78
2021/01/28 06:41:27;;;;;;;9.80;4.60;;;6.40;99.90;;;;;;5049695;28;20227;-77
2021/01/28 06:44:00;;;;;;;8.82;4.50;;;6.40;99.90;;;;;;5039752;28;20290;-78
2021/01/28 06:46:35;;;;;;;9.10;5.00;;;6.30;99.90;;;;;;5035261;28;20230;-77
2021/01/28 06:49:14;;;;;;;7.95;4.40;;;6.30;99.90;;;;;;5051848;28;20268;-78
2021/01/28 06:51:50;;;;;;;6.72;3.80;;;6.10;99.90;;;;;;5047916;28;20937;-77
2021/01/28 06:54:26;;;;;;;8.30;5.00;;;6.30;99.90;;;;;;5052203;28;20748;-78
2021/01/28 06:57:00;;;;;;;6.90;3.75;;;6.30;99.90;;;;;;5050541;28;20229;-79
2021/01/28 06:59:45;;;;;;;7.15;3.28;;;6.30;99.90;;;;;;5051940;28;20206;-81
2021/01/28 07:02:22;;;;;;;7.60;3.80;;;6.50;99.90;;;;;;5051021;28;20371;-79
2021/01/28 07:05:02;;;;;;;7.97;3.83;;;6.60;99.90;;;;;;5052440;28;20207;-78
2021/01/28 07:07:37;;;;;;;6.38;3.63;;;6.40;99.90;;;;;;5043398;28;20225;-79
2021/01/28 07:10:09;;;;;;;8.48;4.47;;;6.50;99.90;;;;;;5051061;28;20672;-79
2021/01/28 07:12:39;;;;;;;6.95;3.70;;;6.30;99.90;;;;;;5052744;28;20617;-79
2021/01/28 07:15:09;;;;;;;5.95;3.30;;;6.60;99.90;;;;;;5038351;28;20195;-79
2021/01/28 07:17:40;;;;;;;7.22;4.05;;;6.50;99.90;;;;;;5039220;28;20234;-78
2021/01/28 07:20:13;;;;;;;7.97;4.00;;;6.40;99.90;;;;;;5032977;28;20191;-79
2021/01/28 07:22:42;;;;;;;5.75;3.25;;;6.40;99.90;;;;;;5036977;28;20218;-79
2021/01/28 07:25:26;;;;;;;6.15;3.80;;;6.50;99.90;;;;;;5036605;28;20361;-79
2021/01/28 07:28:00;;;;;;;9.43;3.58;;;6.40;99.90;;;;;;5051401;28;20642;-76
2021/01/28 07:30:40;;;;;;;7.47;3.50;;;6.40;99.90;;;;;;5052538;28;20280;-76
2021/01/28 07:33:08;;;;;;;5.60;3.05;;;6.30;99.90;;;;;;5046763;28;20206;-76
2021/01/28 07:35:44;;;;;;;4.95;2.83;;;6.30;99.90;;;;;;5044830;28;20271;-76
2021/01/28 07:38:47;;;;;;;6.75;3.25;;;6.60;99.90;;;;;;5040712;28;20253;-76
2021/01/28 07:41:26;;;;;;;7.05;3.25;;;6.40;99.90;;;;;;5043797;28;20244;-76
2021/01/28 07:43:56;;;;;;;8.45;3.03;;;6.40;99.90;;;;;;5032549;28;20606;-76
2021/01/28 07:46:39;;;;;;;6.70;3.70;;;6.40;99.90;;;;;;5048672;28;20234;-76
2021/01/28 07:49:16;;;;;;;7.15;3.63;;;6.50;99.90;;;;;;5051442;28;20206;-76
2021/01/28 07:51:44;;;;;;;11.43;4.13;;;6.50;99.90;;;;;;5032790;28;20202;-79
2021/01/28 07:54:36;;;;;;;6.60;3.67;;;6.40;99.90;;;;;;5041255;28;20645;-79
2021/01/28 07:57:05;;;;;;;6.28;3.65;;;6.30;99.90;;;;;;5044936;28;20328;-78
2021/01/28 07:59:48;;;;;;;5.72;3.65;;;6.40;99.90;;;;;;5050738;28;20206;-78
2021/01/28 08:02:24;;;;;;;9.77;3.38;;;6.30;99.90;;;;;;5043771;28;20665;-77
2021/01/28 08:04:58;;;;;;;7.13;4.40;;;6.50;99.90;;;;;;5052586;28;20210;-77
2021/01/28 08:07:28;;;;;;;6.82;3.75;;;6.30;99.90;;;;;;5050611;28;20237;-78
2021/01/28 08:09:58;;;;;;;6.15;3.17;;;6.40;99.90;;;;;;5046383;28;20222;-78
2021/01/28 08:12:29;;;;;;;7.30;3.85;;;6.80;99.90;;;;;;5048294;28;20564;-81
2021/01/28 08:14:57;;;;;;;6.22;3.95;;;6.70;99.90;;;;;;5046936;28;20210;-79
2021/01/28 08:17:28;;;;;;;7.40;3.90;;;6.60;99.90;;;;;;5052821;28;20248;-79
2021/01/28 08:20:19;;;;;;;7.85;3.75;;;6.50;99.90;;;;;;5036707;28;20215;-79
2021/01/28 08:22:52;;;;;;;6.68;4.10;;;6.70;99.90;;;;;;5045780;28;20657;-79
2021/01/28 08:25:20;;;;;;;7.05;3.90;;;6.60;99.90;;;;;;5046349;28;20210;-80
2021/01/28 08:27:47;;;;;;;8.50;3.53;;;6.90;99.90;;;;;;5038040;28;20231;-80
2021/01/28 08:30:17;;;;;;;6.78;3.10;;;6.60;99.90;;;;;;5047534;28;20203;-79
2021/01/28 08:32:46;;;;;;;6.88;3.42;;;6.60;99.90;;;;;;5047988;28;20251;-82
2021/01/28 08:35:17;;;;;;;5.07;2.72;;;6.80;99.90;;;;;;5046232;28;20205;-80
2021/01/28 08:37:44;;;;;;;4.60;3.05;;;7.00;99.90;;;;;;5055335;28;20226;-81
2021/01/28 08:40:16;;;;;;;5.45;3.20;;;7.00;99.90;;;;;;5056813;28;20221;-81
2021/01/28 08:42:44;;;;;;;4.90;2.75;;;6.70;99.90;;;;;;5050621;28;20213;-78
2021/01/28 08:45:25;;;;;;;6.40;2.70;;;6.70;99.90;;;;;;5038648;28;20207;-80
2021/01/28 08:47:56;;;;;;;4.82;2.65;;;7.00;99.90;;;;;;5041527;28;20264;-81
2021/01/28 08:50:26;;;;;;;4.88;2.83;;;7.00;99.90;;;;;;5057703;28;20247;-79
2021/01/28 08:52:59;;;;;;;5.38;2.80;;;6.90;99.90;;;;;;5054858;28;20199;-79
2021/01/28 08:55:28;;;;;;;4.65;2.30;;;7.10;99.90;;;;;;5035053;28;20200;-79
2021/01/28 08:58:02;;;;;;;5.35;2.72;;;7.10;99.90;;;;;;5034082;28;20258;-78
2021/01/28 09:00:29;;;;;;;4.20;2.38;;;7.10;99.90;;;;;;5032895;28;20669;-81
2021/01/28 09:06:19;;;;;;;6.43;2.50;;;7.00;99.90;;;;;;5035244;28;20274;-79
2021/01/28 09:08:45;;;;;;;3.67;1.83;;;7.10;99.90;;;;;;5042036;28;20204;-79
2021/01/28 09:11:23;;;;;;;3.78;1.90;;;7.30;99.90;;;;;;5042269;28;20294;-81
2021/01/28 09:14:05;;;;;;;3.70;1.75;;;7.00;99.90;;;;;;5035412;28;20246;-79
2021/01/28 09:16:33;;;;;;;3.65;1.85;;;7.10;99.90;;;;;;5053616;28;20325;-78
2021/01/28 09:19:12;;;;;;;5.40;2.10;;;7.20;99.90;;;;;;5052580;28;20281;-79
2021/01/28 09:21:41;;;;;;;6.78;2.45;;;7.20;99.90;;;;;;5037051;28;20673;-79
2021/01/28 09:24:18;;;;;;;4.35;2.08;;;7.30;99.90;;;;;;5049723;28;20361;-80
2021/01/28 09:26:45;;;;;;;4.70;2.13;;;7.30;99.90;;;;;;5054042;28;20230;-78
2021/01/28 09:29:18;;;;;;;6.63;2.10;;;7.10;99.90;;;;;;5050799;28;20251;-78
2021/01/28 09:31:45;;;;;;;4.15;2.00;;;7.20;99.90;;;;;;5053976;28;20235;-78
2021/01/28 09:34:24;;;;;;;4.88;2.30;;;7.30;99.90;;;;;;5050290;28;20245;-80
2021/01/28 09:36:55;;;;;;;6.53;2.30;;;7.50;99.90;;;;;;5035621;28;20257;-79
2021/01/28 09:39:30;;;;;;;3.90;2.00;;;7.30;99.90;;;;;;5045014;28;20214;-82
2021/01/28 09:41:57;;;;;;;5.43;2.13;;;7.20;99.90;;;;;;5054848;28;20210;-81
2021/01/28 09:44:30;;;;;;;6.75;2.40;;;7.30;99.90;;;;;;5054104;28;20202;-80
2021/01/28 09:47:17;;;;;;;3.85;2.28;;;7.30;99.90;;;;;;5055612;28;20221;-79
2021/01/28 09:49:46;;;;;;;4.63;2.03;;;7.30;99.90;;;;;;5055509;28;20206;-79
2021/01/28 09:52:19;;;;;;;6.18;2.70;;;7.50;99.90;;;;;;5037675;28;20207;-78
2021/01/28 09:54:50;;;;;;;3.97;1.65;;;7.40;99.90;;;;;;5054210;28;20206;-80
2021/01/28 09:57:17;;;;;;;3.00;1.60;;;7.40;99.90;;;;;;5038620;28;20768;-76
2021/01/28 09:59:44;;;;;;;5.35;2.10;;;7.40;99.90;;;;;;5045344;28;20280;-78
2021/01/28 10:05:35;;;;;;;4.78;2.45;;;7.30;99.90;;;;;;4987985;28;20288;-80
2021/01/28 10:08:03;;;;;;;5.65;3.30;;;7.20;99.90;;;;;;5042078;28;20242;-79
2021/01/28 10:10:31;;;;;;;6.55;2.97;;;7.60;99.90;;;;;;5040164;28;20203;-79
2021/01/28 10:13:03;;;;;;;4.10;2.05;;;7.40;99.90;;;;;;5049873;28;20207;-81
2021/01/28 10:15:30;;;;;;;3.10;1.17;;;7.60;99.90;;;;;;5035602;28;20200;-79
2021/01/28 10:17:59;;;;;;;4.35;1.55;;;7.60;99.90;;;;;;5036591;28;20264;-79
2021/01/28 10:20:26;;;;;;;5.22;2.05;;;7.70;99.90;;;;;;5040096;28;20203;-78
2021/01/28 10:22:53;;;;;;;3.45;1.55;;;7.80;99.90;;;;;;5076161;22;20232;-82
2021/01/28 10:25:22;;;;;;;2.90;1.13;;;7.70;99.90;;;;;;5075788;28;20221;-81
2021/01/28 10:27:48;;;;;;;4.00;1.40;;;7.60;99.90;;;;;;5074873;28;20198;-83
2021/01/28 10:30:17;;;;;;;8.38;1.90;;;7.80;99.90;;;;;;5075932;28;20209;-82
2021/01/28 10:32:44;;;;;;;3.38;1.60;;;7.70;99.90;;;;;;5074464;28;20222;-83
2021/01/28 10:35:12;;;;;;;4.85;2.90;;;7.80;99.90;;;;;;5076146;28;20206;-82
2021/01/28 10:37:39;;;;;;;3.05;1.30;;;7.60;99.90;;;;;;5073770;28;20287;-84
2021/01/28 10:40:07;;;;;;;6.20;1.50;;;7.90;99.90;;;;;;5080492;28;20433;-83
2021/01/28 10:42:38;;;;;;;3.28;1.50;;;7.70;99.90;;;;;;5076680;28;20217;-86
2021/01/28 10:45:06;;;;;;;3.63;1.55;;;7.80;99.90;;;;;;5078781;28;20266;-83
2021/01/28 10:47:32;;;;;;;3.75;1.65;;;7.90;99.90;;;;;;5078830;28;20664;-85
2021/01/28 10:49:59;;;;;;;2.72;1.20;;;7.90;99.90;;;;;;5078878;28;20205;-87
2021/01/28 10:52:26;;;;;;;2.60;1.35;;;8.20;99.90;;;;;;5078303;28;20285;-85
2021/01/28 10:54:52;;;;;;;3.25;1.45;;;7.80;99.90;;;;;;5076793;28;20244;-84
2021/01/28 10:57:18;;;;;;;3.80;1.30;;;8.10;99.90;;;;;;5079178;28;20226;-83
2021/01/28 10:59:45;;;;;;;2.72;1.30;;;8.20;99.90;;;;;;5077655;28;20202;-83
2021/01/28 11:02:11;;;;;;;2.63;1.35;;;8.10;99.90;;;;;;5076584;28;20220;-84
2021/01/28 11:04:37;;;;;;;2.97;1.30;;;8.10;99.90;;;;;;5079248;28;20296;-84
2021/01/28 11:07:04;;;;;;;3.92;1.50;;;8.40;99.90;;;;;;5077484;28;20262;-85
2021/01/28 11:09:31;;;;;;;4.55;1.88;;;8.40;99.90;;;;;;5074274;28;20214;-81
2021/01/28 11:11:57;;;;;;;3.70;1.50;;;8.40;99.90;;;;;;5074247;28;20212;-80
2021/01/28 11:14:24;;;;;;;6.18;1.98;;;8.50;99.90;;;;;;5075737;28;20226;-80
2021/01/28 11:16:51;;;;;;;3.45;1.70;;;8.50;99.90;;;;;;5073768;28;20210;-80
2021/01/28 11:19:20;;;;;;;5.63;2.20;;;8.60;99.90;;;;;;5073819;28;20206;-83
2021/01/28 11:21:46;;;;;;;4.50;1.85;;;8.50;99.90;;;;;;5076863;28;20251;-84
2021/01/28 11:24:14;;;;;;;7.50;3.55;;;8.40;99.90;;;;;;5077253;28;20939;-85
2021/01/28 11:26:40;;;;;;;4.15;1.90;;;8.50;99.90;;;;;;5078028;28;20209;-86
2021/01/28 11:29:06;;;;;;;3.15;1.70;;;8.70;99.90;;;;;;5085425;28;20206;-84
2021/01/28 11:31:34;;;;;;;5.85;1.40;;;8.50;99.90;;;;;;5088821;28;20245;-81
2021/01/28 11:34:02;;;;;;;3.50;1.60;;;8.50;99.90;;;;;;5083165;28;20700;-87
2021/01/28 11:36:28;;;;;;;6.45;2.03;;;8.70;99.90;;;;;;5072201;28;20203;-88
2021/01/28 11:38:55;;;;;;;3.42;1.52;;;8.90;99.90;;;;;;5055988;28;20451;-88
2021/01/28 11:41:22;;;;;;;4.85;1.63;;;8.80;99.90;;;;;;5056363;28;20226;-87
2021/01/28 11:43:48;;;;;;;3.70;1.65;;;8.90;99.90;;;;;;5057222;28;20229;-88
2021/01/28 11:46:14;;;;;;;2.83;1.10;;;9.00;99.90;;;;;;5060775;28;20266;-88
2021/01/28 11:48:41;;;;;;;7.10;3.55;;;9.30;99.90;;;;;;5065571;28;20230;-86
2021/01/28 11:51:07;;;;;;;4.30;1.63;;;9.20;99.90;;;;;;5073179;28;20218;-89
2021/01/28 11:53:34;;;;;;;3.42;1.23;;;9.30;99.90;;;;;;5085961;28;20324;-86
2021/01/28 11:56:00;;;;;;;4.27;1.67;;;9.30;99.90;;;;;;5073070;28;20238;-85
2021/01/28 11:58:27;;;;;;;3.60;1.60;;;9.50;99.90;;;;;;5071871;28;20844;-85
2021/01/28 12:00:54;;;;;;;12.38;1.60;;;9.50;99.90;;;;;;5075662;28;20484;-85
2021/01/28 12:03:20;;;;;;;3.13;1.20;;;9.50;99.90;;;;;;5074788;28;20222;-85
2021/01/28 12:05:46;;;;;;;3.50;1.50;;;9.40;99.90;;;;;;5075100;28;20292;-85
2021/01/28 12:08:13;;;;;;;3.30;1.13;;;9.40;99.90;;;;;;5070907;28;20281;-85
2021/01/28 12:10:39;;;;;;;3.63;1.40;;;9.50;99.90;;;;;;5078173;28;20330;-85
2021/01/28 12:13:05;;;;;;;3.40;1.50;;;9.50;99.90;;;;;;5078478;28;20471;-84
2021/01/28 12:15:33;;;;;;;4.20;1.47;;;9.60;99.90;;;;;;5079595;28;20456;-83
2021/01/28 12:17:59;;;;;;;2.70;1.50;;;9.70;99.90;;;;;;5082527;28;20499;-79
2021/01/28 12:20:27;;;;;;;3.43;1.70;;;9.80;99.90;;;;;;5079035;28;20532;-85
2021/01/28 12:22:55;;;;;;;5.80;2.43;;;9.90;99.90;;;;;;5079357;28;20500;-86
2021/01/28 12:25:21;;;;;;;7.00;2.55;;;10.00;99.90;;;;;;5078276;28;20458;-85
2021/01/28 12:27:48;;;;;;;6.45;1.80;;;10.00;99.90;;;;;;5078070;28;20479;-85
2021/01/28 12:30:19;;;;;;;3.95;1.20;;;10.00;99.90;;;;;;5077891;28;20216;-83
2021/01/28 12:32:46;;;;;;;3.15;1.27;;;10.00;99.90;;;;;;5077908;28;20229;-85
2021/01/28 12:35:13;;;;;;;3.10;1.30;;;10.00;99.90;;;;;;5078385;28;20266;-85
2021/01/28 12:37:39;;;;;;;3.43;1.50;;;10.00;99.90;;;;;;5077880;28;20570;-85
2021/01/28 12:40:07;;;;;;;2.80;1.30;;;10.10;99.90;;;;;;5077734;28;20458;-86
2021/01/28 12:42:34;;;;;;;6.20;1.90;;;10.20;99.90;;;;;;5076512;28;20480;-85
2021/01/28 12:45:00;;;;;;;3.00;1.30;;;10.20;99.90;;;;;;5075251;28;20973;-85
2021/01/28 12:47:26;;;;;;;2.50;1.00;;;10.30;99.90;;;;;;5068068;28;20531;-85
2021/01/28 12:49:54;;;;;;;4.07;1.43;;;10.30;99.90;;;;;;5081697;28;20478;-84
2021/01/28 12:52:20;;;;;;;4.03;1.48;;;10.30;99.90;;;;;;5078836;28;20440;-85
2021/01/28 12:54:46;;;;;;;3.53;1.40;;;10.20;99.90;;;;;;5077184;28;20210;-85
2021/01/28 12:57:13;;;;;;;2.63;1.10;;;10.30;99.90;;;;;;5077218;28;20222;-84
2021/01/28 12:59:40;;;;;;;3.42;1.40;;;10.40;99.90;;;;;;5073240;28;20479;-85
2021/01/28 13:02:07;;;;;;;3.40;1.23;;;10.40;99.90;;;;;;5076885;28;20256;-84
2021/01/28 13:04:33;;;;;;;2.60;1.13;;;10.40;99.90;;;;;;5076548;28;20517;-84
2021/01/28 13:07:00;;;;;;;2.77;1.20;;;10.30;99.90;;;;;;5077162;28;20993;-84
2021/01/28 13:09:27;;;;;;;2.85;1.40;;;10.40;99.90;;;;;;5076680;28;20531;-85
2021/01/28 13:11:53;;;;;;;3.97;2.37;;;10.30;99.90;;;;;;5076914;28;20244;-85
2021/01/28 13:14:19;;;;;;;2.83;1.23;;;10.30;99.90;;;;;;5081857;28;20507;-85
2021/01/28 13:16:46;;;;;;;4.10;1.47;;;10.40;99.90;;;;;;5078779;28;20506;-85
2021/01/28 13:19:12;;;;;;;2.40;0.90;;;10.50;99.90;;;;;;5076978;28;20490;-84